Аэропорт: Гродно. Гродно

ICAO: UMMG

METAR:
2018/07/22 16:00
UMMG 221600Z 34004G07MPS 9999 SCT040 BKN066 26/13 Q1008 NOSIG
METAR:
2018/04/06 12:21
TAF UMMG 061100Z 0612/0624 27008G13MPS 9999 SCT020 
      TEMPO 0612/0618 28011G16MPS BKN015 
      TEMPO 0621/0624 24005MPS 2000 BR SCT005